Time;durP1;ratioP1;P1;durP2;ratioP2;P2;SDS_P1;SDS_P2;PMS_P1;PMS_P2;Temp;Humidity;BMP_temperature;BMP_pressure;BME280_temperature;BME280_humidity;BME280_pressure;Samples;Min_cycle;Max_cycle;Signal;HPM_P1;HPM_P2
2022/04/19 00:00:37;;;;;;;6.72;5.20;;;;;;;9.20;83.26;101690.50;4949348;28;20534;-77
2022/04/19 00:03:06;;;;;;;6.75;5.35;;;;;;;9.23;82.67;101690.56;4924700;28;20040;-77
2022/04/19 00:05:38;;;;;;;6.38;4.95;;;;;;;9.26;82.89;101688.03;4932595;28;20496;-77
2022/04/19 00:08:07;;;;;;;5.20;4.65;;;;;;;9.28;82.44;101686.31;4943850;28;20062;-77
2022/04/19 00:10:36;;;;;;;7.30;5.30;;;;;;;9.29;82.54;101680.19;4930745;28;20047;-77
2022/04/19 00:13:05;;;;;;;9.18;5.03;;;;;;;9.29;82.95;101680.19;4940368;28;20051;-77
2022/04/19 00:15:34;;;;;;;7.95;4.57;;;;;;;9.27;83.11;101679.25;4931072;28;20414;-77
2022/04/19 00:18:04;;;;;;;7.93;4.95;;;;;;;9.26;82.64;101685.38;4934225;29;20059;-77
2022/04/19 00:20:33;;;;;;;5.13;4.63;;;;;;;9.24;82.97;101680.94;4928559;28;20047;-77
2022/04/19 00:23:03;;;;;;;7.70;4.38;;;;;;;9.23;82.76;101672.16;4944145;29;20047;-77
2022/04/19 00:25:31;;;;;;;8.70;4.90;;;;;;;9.22;83.16;101674.75;4920754;28;20053;-77
2022/04/19 00:28:00;;;;;;;5.95;5.00;;;;;;;9.21;83.31;101670.38;4912649;29;20058;-77
2022/04/19 00:30:28;;;;;;;11.13;6.20;;;;;;;9.16;82.99;101667.63;4921289;28;20062;-77
2022/04/19 00:32:57;;;;;;;5.93;4.65;;;;;;;9.12;83.66;101671.91;4946629;29;20070;-77
2022/04/19 00:35:26;;;;;;;6.90;4.47;;;;;;;9.09;83.83;101674.50;4945350;28;20281;-77
2022/04/19 00:37:55;;;;;;;7.13;5.35;;;;;;;9.02;83.85;101669.03;4930740;29;20039;-77
2022/04/19 00:40:23;;;;;;;6.82;5.30;;;;;;;8.96;84.47;101665.44;4942308;28;20072;-77
2022/04/19 00:42:54;;;;;;;6.07;4.75;;;;;;;8.89;85.31;101668.78;4928997;29;20046;-77
2022/04/19 00:45:23;;;;;;;;;;;;;;;8.85;87.49;101668.69;4944198;28;20248;-77
2022/04/19 00:47:53;;;;;;;7.03;5.43;;;;;;;8.88;87.29;101660.84;4922486;29;19923;-77
2022/04/19 00:50:24;;;;;;;8.85;6.00;;;;;;;8.92;87.46;101655.72;4927556;29;20070;-77
2022/04/19 00:52:53;;;;;;;7.85;5.97;;;;;;;8.93;87.38;101651.34;4930370;28;20032;-77
2022/04/19 00:55:25;;;;;;;7.97;6.18;;;;;;;8.91;88.10;101648.66;4945562;29;20551;-77
2022/04/19 00:57:53;;;;;;;6.40;5.72;;;;;;;8.88;88.69;101650.31;4906118;29;20474;-77
2022/04/19 01:00:24;;;;;;;6.65;5.18;;;;;;;8.82;88.95;101651.06;4953315;28;20043;-77
2022/04/19 01:03:18;;;;;;;7.80;5.75;;;;;;;8.78;89.25;101651.84;4958340;23;20081;-77
2022/04/19 01:05:48;;;;;;;8.65;6.03;;;;;;;8.73;88.86;101648.22;4957945;28;20046;-77
2022/04/19 01:08:20;;;;;;;8.30;5.82;;;;;;;8.67;89.67;101648.09;4951336;28;20062;-76
2022/04/19 01:13:17;;;;;;;6.70;5.82;;;;;;;8.61;90.03;101658.47;4971429;28;20052;-77
2022/04/19 01:13:55;;;;;;;9.68;5.90;;;;;;;8.55;90.52;101646.06;4942339;28;20109;-77
2022/04/19 01:16:28;;;;;;;8.60;5.50;;;;;;;8.51;90.54;101644.22;4967282;28;20260;-77
2022/04/19 01:18:58;;;;;;;7.13;5.25;;;;;;;8.50;91.32;101645.94;4952380;28;20043;-76
2022/04/19 01:21:42;;;;;;;6.40;5.50;;;;;;;8.47;91.45;101648.50;4929510;29;20731;-76
2022/04/19 01:24:14;;;;;;;6.30;5.65;;;;;;;8.45;91.67;101642.34;4932906;28;20261;-77
2022/04/19 01:26:43;;;;;;;;;;;;;;;8.41;93.25;101650.94;4967114;28;20407;-77
2022/04/19 01:29:12;;;;;;;7.35;5.88;;;;;;;8.38;92.32;101649.13;4916054;29;20541;-76
2022/04/19 01:31:43;;;;;;;7.70;5.80;;;;;;;8.37;92.14;101651.69;4966703;28;20528;-77
2022/04/19 01:34:12;;;;;;;7.57;5.97;;;;;;;8.33;92.01;101647.22;4953815;28;20039;-77
2022/04/19 01:36:41;;;;;;;7.20;5.22;;;;;;;8.30;92.69;101647.13;4934343;28;20059;-77
2022/04/19 01:39:10;;;;;;;6.63;5.55;;;;;;;8.24;92.27;101649.63;4916079;29;20609;-77
2022/04/19 01:41:41;;;;;;;8.40;5.75;;;;;;;8.19;92.60;101649.50;4966436;28;20062;-76
2022/04/19 01:44:10;;;;;;;7.55;5.78;;;;;;;8.13;93.51;101652.00;4946392;28;20172;-77
2022/04/19 01:46:39;;;;;;;6.55;5.65;;;;;;;8.12;93.95;101658.06;4965356;28;20043;-77
2022/04/19 01:49:08;;;;;;;8.23;6.05;;;;;;;8.17;94.43;101657.34;4937784;28;20362;-77
2022/04/19 01:51:37;;;;;;;6.75;5.50;;;;;;;8.20;94.09;101662.69;4934988;29;20047;-77
2022/04/19 01:54:10;;;;;;;6.28;5.22;;;;;;;8.20;94.44;101661.78;4949246;28;20524;-78
2022/04/19 01:56:39;;;;;;;7.93;5.72;;;;;;;8.22;94.62;101665.31;4949775;29;20400;-76
2022/04/19 01:59:17;;;;;;;10.60;5.82;;;;;;;8.24;94.99;101661.03;4902780;28;20563;-78
2022/04/19 02:02:05;;;;;;;6.90;6.13;;;;;;;8.27;94.53;101655.84;4945751;28;20078;-77
2022/04/19 02:04:34;;;;;;;8.43;6.28;;;;;;;8.32;94.70;101659.47;4938861;28;20117;-76
2022/04/19 02:07:04;;;;;;;9.68;6.13;;;;;;;8.36;94.53;101653.44;4924998;29;20051;-77
2022/04/19 02:09:35;;;;;;;7.55;6.13;;;;;;;8.39;94.03;101655.25;4951238;28;20621;-77
2022/04/19 02:12:05;;;;;;;8.77;6.00;;;;;;;8.41;94.14;101661.44;4927476;29;20058;-77
2022/04/19 02:14:53;;;;;;;7.70;6.63;;;;;;;8.44;94.52;101652.78;4926876;28;20031;-77
2022/04/19 02:17:23;;;;;;;8.10;6.07;;;;;;;8.43;94.38;101651.00;4928125;29;20321;-77
2022/04/19 02:20:04;;;;;;;10.23;6.88;;;;;;;8.40;94.60;101657.03;4924659;29;20042;-77
2022/04/19 02:22:34;;;;;;;7.10;6.03;;;;;;;8.38;94.80;101653.50;4946958;28;20505;-77
2022/04/19 02:25:02;;;;;;;8.68;6.13;;;;;;;8.39;95.06;101656.16;4945294;28;20523;-77
2022/04/19 02:27:33;;;;;;;10.45;6.55;;;;;;;8.41;95.17;101656.19;4962391;28;20055;-77
2022/04/19 02:30:04;;;;;;;9.10;6.00;;;;;;;8.42;94.87;101655.38;4933145;29;20039;-77
2022/04/19 02:32:34;;;;;;;9.90;6.30;;;;;;;8.40;95.06;101654.41;4914625;29;20400;-77
2022/04/19 02:35:04;;;;;;;12.38;6.85;;;;;;;8.39;94.93;101650.91;4918827;29;20051;-77
2022/04/19 02:37:33;;;;;;;10.10;6.65;;;;;;;8.39;95.36;101665.75;4961418;28;20044;-77
2022/04/19 02:40:01;;;;;;;9.98;6.70;;;;;;;8.37;95.21;101655.25;4933800;28;20043;-77
2022/04/19 02:42:30;;;;;;;9.63;7.90;;;;;;;8.36;95.26;101663.06;4959194;28;20028;-77
2022/04/19 02:45:01;;;;;;;9.10;6.60;;;;;;;8.31;95.10;101664.69;4926104;29;20036;-77
2022/04/19 02:47:31;;;;;;;9.55;6.70;;;;;;;8.26;95.74;101672.47;4927408;28;20051;-77
2022/04/19 02:50:01;;;;;;;10.52;7.20;;;;;;;8.20;95.76;101661.78;4909916;29;20521;-76
2022/04/19 02:52:29;;;;;;;10.40;6.82;;;;;;;8.19;96.17;101660.00;4944993;28;20040;-78
2022/04/19 02:54:58;;;;;;;10.20;7.03;;;;;;;8.20;96.35;101660.06;4959179;28;20036;-78
2022/04/19 02:57:27;;;;;;;10.57;7.25;;;;;;;8.23;96.52;101671.50;4929911;28;20430;-77
2022/04/19 02:59:56;;;;;;;13.13;6.75;;;;;;;8.20;96.40;101665.31;4939312;28;20407;-77
2022/04/19 03:02:24;;;;;;;12.15;7.60;;;;;;;8.19;96.45;101674.03;4927004;28;20055;-75
2022/04/19 03:04:53;;;;;;;12.05;7.82;;;;;;;8.18;96.33;101669.63;4935769;28;20047;-77
2022/04/19 03:07:24;;;;;;;;;;;;;;;8.16;98.30;101671.31;4958665;28;20718;-76
2022/04/19 03:09:52;;;;;;;10.15;7.30;;;;;;;8.15;97.04;101660.78;4909969;29;20380;-77
2022/04/19 03:12:20;;;;;;;12.95;7.50;;;;;;;8.14;96.85;101674.75;4911621;29;20170;-77
2022/04/19 03:15:08;;;;;;;10.50;7.93;;;;;;;8.13;97.01;101667.75;4923090;29;20552;-77
2022/04/19 03:17:41;;;;;;;13.15;7.47;;;;;;;8.11;97.13;101666.78;4912533;29;20039;-77
2022/04/19 03:20:11;;;;;;;13.40;8.40;;;;;;;8.07;97.26;101659.69;4902239;29;20040;-77
2022/04/19 03:28:25;;;;;;;11.13;7.97;;;;;;;7.95;97.81;101663.75;4931587;28;20040;-77
2022/04/19 03:30:54;;;;;;;12.10;8.30;;;;;;;7.95;97.96;101662.88;4912802;29;20055;-77
2022/04/19 03:33:23;;;;;;;12.85;8.32;;;;;;;7.94;98.27;101672.50;4944221;28;20166;-77
2022/04/19 03:35:55;;;;;;;13.00;8.13;;;;;;;7.93;98.53;101685.56;4937900;28;20384;-77
2022/04/19 03:38:25;;;;;;;13.00;7.55;;;;;;;7.92;98.77;101681.16;4928871;29;20237;-76
2022/04/19 03:40:53;;;;;;;10.73;7.53;;;;;;;7.89;99.00;101673.22;4958782;28;20405;-77
2022/04/19 03:43:23;;;;;;;10.57;7.30;;;;;;;7.88;99.97;101668.78;4913414;28;20623;-77
2022/04/19 03:45:52;;;;;;;13.43;7.85;;;;;;;7.85;99.48;101669.63;4955575;28;20048;-77
2022/04/19 03:48:20;;;;;;;12.45;7.20;;;;;;;7.84;99.68;101669.56;4954157;28;20048;-77
2022/04/19 03:50:52;;;;;;;11.40;7.68;;;;;;;7.83;99.78;101673.06;4912833;29;20036;-77
2022/04/19 03:53:20;;;;;;;10.48;7.85;;;;;;;7.80;100.00;101674.72;4939424;28;20162;-77
2022/04/19 03:55:49;;;;;;;12.13;8.05;;;;;;;7.78;100.00;101665.91;4945459;28;20043;-77
2022/04/19 03:58:17;;;;;;;10.23;7.57;;;;;;;7.76;100.00;101666.72;4911751;28;20531;-76
2022/04/19 04:00:46;;;;;;;10.90;7.57;;;;;;;7.75;100.00;101665.84;4944370;29;20044;-77
2022/04/19 04:03:15;;;;;;;10.18;7.40;;;;;;;7.73;100.00;101671.88;4926052;28;20276;-77
2022/04/19 04:05:44;;;;;;;9.02;7.70;;;;;;;7.70;100.00;101670.06;4918569;29;20043;-77
2022/04/19 04:08:13;;;;;;;9.65;7.63;;;;;;;7.68;100.00;101674.38;4921860;29;20609;-77
2022/04/19 04:10:51;;;;;;;9.18;7.35;;;;;;;7.67;100.00;101666.47;4939017;29;20058;-77
2022/04/19 04:13:24;;;;;;;12.80;7.93;;;;;;;7.63;100.00;101664.63;4928256;28;20537;-76
2022/04/19 04:15:53;;;;;;;14.13;8.48;;;;;;;7.60;100.00;101670.66;4943467;28;20046;-77
2022/04/19 04:18:21;;;;;;;13.45;7.97;;;;;;;7.59;100.00;101684.63;4922189;28;20040;-77
2022/04/19 04:20:50;;;;;;;11.73;7.60;;;;;;;7.58;100.00;101672.34;4960258;28;20048;-76
2022/04/19 04:23:19;;;;;;;10.45;7.72;;;;;;;7.58;100.00;101677.56;4934715;28;20161;-77
2022/04/19 04:25:47;;;;;;;12.15;7.90;;;;;;;7.56;100.00;101681.91;4941002;29;20047;-77
2022/04/19 04:28:18;;;;;;;14.68;8.32;;;;;;;7.54;100.00;101683.59;4926655;28;20063;-77
2022/04/19 04:30:49;;;;;;;13.95;8.82;;;;;;;7.55;100.00;101683.63;4937646;29;20051;-77
2022/04/19 04:33:18;;;;;;;11.13;7.78;;;;;;;7.57;100.00;101683.69;4923502;28;21010;-77
2022/04/19 04:35:46;;;;;;;12.63;8.63;;;;;;;7.56;100.00;101677.56;4943716;28;20413;-76
2022/04/19 04:38:15;;;;;;;10.27;7.25;;;;;;;7.56;100.00;101680.19;4933364;28;20564;-78
2022/04/19 04:40:44;;;;;;;12.43;8.00;;;;;;;7.55;100.00;101688.00;4944178;29;20051;-77
2022/04/19 04:43:16;;;;;;;12.35;8.38;;;;;;;7.56;100.00;101682.81;4927591;28;21561;-76
2022/04/19 04:49:35;;;;;;;9.40;7.15;;;;;;;7.56;100.00;101679.28;4959916;28;20047;-76
2022/04/19 04:51:22;;;;;;;11.50;7.43;;;;;;;7.56;100.00;101685.44;4944897;28;20047;-77
2022/04/19 04:53:51;;;;;;;11.48;8.43;;;;;;;7.56;100.00;101690.69;4930683;28;20039;-77
2022/04/19 04:56:25;;;;;;;10.90;7.35;;;;;;;7.56;100.00;101690.69;4910431;29;20039;-77
2022/04/19 04:58:54;;;;;;;13.55;8.02;;;;;;;7.59;100.00;101687.25;4921408;28;20056;-76
2022/04/19 05:01:23;;;;;;;13.43;8.27;;;;;;;7.61;100.00;101690.78;4923460;29;20044;-77
2022/04/19 05:03:52;;;;;;;14.00;8.15;;;;;;;7.64;100.00;101690.91;4963009;28;20419;-77
2022/04/19 05:06:21;;;;;;;12.90;8.63;;;;;;;7.66;100.00;101697.06;4943085;28;20086;-77
2022/04/19 05:08:49;;;;;;;16.83;8.77;;;;;;;7.70;100.00;101691.06;4926595;28;20047;-77
2022/04/19 05:11:18;;;;;;;12.73;7.75;;;;;;;7.73;100.00;101699.03;4942666;29;20047;-77
2022/04/19 05:13:46;;;;;;;11.18;7.28;;;;;;;7.76;100.00;101693.84;4946962;29;20043;-77
2022/04/19 05:16:16;;;;;;;8.60;6.57;;;;;;;7.79;100.00;101693.94;4947777;28;20317;-77
2022/04/19 05:18:44;;;;;;;13.38;7.03;;;;;;;7.84;100.00;101691.44;4950028;28;20047;-77
2022/04/19 05:21:13;;;;;;;11.13;7.35;;;;;;;7.89;100.00;101696.84;4929146;28;20428;-78
2022/04/19 05:23:43;;;;;;;11.93;7.53;;;;;;;7.94;100.00;101697.81;4923677;29;20036;-77
2022/04/19 05:26:13;;;;;;;13.57;7.32;;;;;;;7.98;100.00;101703.22;4926788;29;20572;-77
2022/04/19 05:28:42;;;;;;;10.95;7.07;;;;;;;8.04;100.00;101694.63;4945175;28;20044;-77
2022/04/19 05:31:10;;;;;;;11.43;7.30;;;;;;;8.10;100.00;101707.91;4929371;28;20175;-77
2022/04/19 05:33:39;;;;;;;15.95;8.60;;;;;;;8.16;100.00;101705.44;4947518;29;20050;-77
2022/04/19 05:36:08;;;;;;;11.13;7.53;;;;;;;8.23;100.00;101697.75;4929139;28;20040;-77
2022/04/19 05:38:37;;;;;;;11.07;7.43;;;;;;;8.28;100.00;101699.66;4922341;28;20044;-76
2022/04/19 05:41:10;;;;;;;13.75;7.25;;;;;;;8.35;100.00;101703.31;4949602;28;20040;-77
2022/04/19 05:43:40;;;;;;;11.48;7.53;;;;;;;8.40;100.00;101702.56;4954302;28;20048;-77
2022/04/19 05:46:12;;;;;;;12.05;6.82;;;;;;;8.48;100.00;101708.06;4937543;28;20042;-77
2022/04/19 05:48:43;;;;;;;9.88;7.15;;;;;;;8.53;100.00;101706.44;4922962;29;20048;-77
2022/04/19 05:51:12;;;;;;;16.33;7.65;;;;;;;8.60;100.00;101707.50;4961581;28;20048;-77
2022/04/19 05:53:41;;;;;;;10.68;7.07;;;;;;;8.67;100.00;101708.53;4916958;29;20608;-77
2022/04/19 05:56:15;;;;;;;11.25;6.63;;;;;;;8.75;100.00;101713.13;4922699;29;20497;-75
2022/04/19 05:58:46;;;;;;;13.48;7.15;;;;;;;8.91;100.00;101709.13;4931806;28;20358;-77
2022/04/19 06:01:15;;;;;;;9.63;6.50;;;;;;;9.46;100.00;101713.88;4940417;28;20548;-78
2022/04/19 06:06:39;;;;;;;9.23;6.35;;;;;;;10.67;97.17;101710.94;4924534;29;20044;-75
2022/04/19 06:09:12;;;;;;;11.13;6.80;;;;;;;10.86;95.57;101719.16;4918910;28;20032;-74
2022/04/19 06:11:40;;;;;;;11.27;5.93;;;;;;;10.88;94.36;101722.69;4970354;28;20046;-74
2022/04/19 06:14:11;;;;;;;12.18;5.95;;;;;;;10.82;92.92;101719.97;4909676;29;20259;-75
2022/04/19 06:16:39;;;;;;;13.20;6.20;;;;;;;10.77;93.03;101727.78;4963580;28;20055;-75
2022/04/19 06:19:09;;;;;;;6.95;5.28;;;;;;;10.75;92.45;101718.09;4917014;28;20040;-76
2022/04/19 06:21:41;;;;;;;10.32;5.43;;;;;;;10.81;91.00;101729.63;4909169;29;20039;-75
2022/04/19 06:24:13;;;;;;;9.75;6.18;;;;;;;10.94;90.35;101722.78;4917188;29;20409;-74
2022/04/19 06:26:41;;;;;;;9.27;5.72;;;;;;;11.17;89.22;101725.78;4931994;28;20036;-75
2022/04/19 06:29:19;;;;;;;8.00;5.90;;;;;;;11.22;87.16;101726.72;4931380;28;20052;-73
2022/04/19 06:31:53;;;;;;;6.65;5.07;;;;;;;11.50;87.01;101725.34;4955616;28;20039;-76
2022/04/19 06:34:40;;;;;;;7.18;4.75;;;;;;;11.65;85.51;101722.03;4929273;28;20055;-74
2022/04/19 06:37:11;;;;;;;7.38;5.13;;;;;;;11.63;84.45;101736.09;4953237;28;20043;-75
2022/04/19 06:39:44;;;;;;;7.32;4.90;;;;;;;11.58;83.68;101740.41;4943752;28;20624;-75
2022/04/19 06:42:14;;;;;;;4.45;3.88;;;;;;;11.50;82.01;101728.00;4919287;28;20429;-75
2022/04/19 06:45:05;;;;;;;7.68;3.97;;;;;;;11.46;81.02;101738.50;4937644;28;20587;-75
2022/04/19 06:47:38;;;;;;;6.70;4.38;;;;;;;11.48;80.09;101739.41;4948698;28;20051;-74
2022/04/19 06:50:08;;;;;;;6.55;3.78;;;;;;;11.62;80.84;101742.22;4928058;28;20058;-73
2022/04/19 06:52:36;;;;;;;8.60;5.28;;;;;;;12.01;80.62;101738.34;4940113;28;20040;-74
2022/04/19 06:55:19;;;;;;;9.30;4.95;;;;;;;12.49;78.96;101731.78;4922271;29;20051;-74
2022/04/19 06:57:49;;;;;;;8.60;4.47;;;;;;;12.90;78.62;101738.31;4927609;28;20032;-74
2022/04/19 07:00:19;;;;;;;6.03;4.35;;;;;;;13.20;77.21;101727.94;4928406;28;20052;-74
2022/04/19 07:02:48;;;;;;;8.30;4.80;;;;;;;13.43;75.25;101735.19;4912364;29;20056;-75
2022/04/19 07:05:37;;;;;;;8.30;4.95;;;;;;;13.41;73.76;101731.63;4935995;28;20048;-74
2022/04/19 07:08:07;;;;;;;;;;;;;;;13.42;71.57;101733.38;4944777;28;20051;-74
2022/04/19 07:10:36;;;;;;;10.07;5.30;;;;;;;13.55;75.39;101731.69;4958121;28;19927;-75
2022/04/19 07:13:27;;;;;;;4.75;4.25;;;;;;;13.58;72.93;101735.25;4924679;28;20039;-74
2022/04/19 07:15:57;;;;;;;7.20;4.20;;;;;;;13.48;72.26;101728.16;4937526;28;20040;-74
2022/04/19 07:18:26;;;;;;;5.47;4.03;;;;;;;13.44;71.66;101732.53;4945592;28;20035;-74
2022/04/19 07:26:38;;;;;;;6.53;4.50;;;;;;;13.16;71.42;101731.44;4943048;28;20055;-74
2022/04/19 07:29:11;;;;;;;6.03;3.95;;;;;;;13.18;70.78;101736.75;4944999;28;20044;-75
2022/04/19 07:31:43;;;;;;;4.85;4.22;;;;;;;13.25;71.37;101741.19;4939215;28;20047;-74
2022/04/19 07:34:28;;;;;;;6.70;4.32;;;;;;;13.27;70.06;101740.34;4945319;28;20056;-75
2022/04/19 07:36:57;;;;;;;3.40;3.10;;;;;;;13.32;68.87;101742.16;4935579;28;20496;-75
2022/04/19 07:39:25;;;;;;;4.07;3.67;;;;;;;13.30;67.72;101735.94;4936277;28;20043;-74
2022/04/19 07:41:55;;;;;;;5.45;3.58;;;;;;;13.25;67.78;101755.34;4971549;28;20036;-74
2022/04/19 07:44:28;;;;;;;4.47;3.80;;;;;;;13.18;67.37;101750.88;4943409;28;20047;-74
2022/04/19 07:46:57;;;;;;;3.40;3.10;;;;;;;13.22;67.66;101750.00;4929120;28;20048;-74
2022/04/19 07:49:26;;;;;;;3.95;3.10;;;;;;;13.15;67.13;101753.50;4943848;28;20044;-75
2022/04/19 07:51:54;;;;;;;4.20;3.47;;;;;;;13.15;67.38;101758.78;4932575;28;20166;-75
2022/04/19 07:54:23;;;;;;;4.82;3.22;;;;;;;13.13;67.63;101757.88;4939273;28;20044;-75
2022/04/19 07:56:52;;;;;;;5.80;3.17;;;;;;;13.06;67.16;101762.25;4943334;29;20050;-78
2022/04/19 07:59:28;;;;;;;4.38;3.40;;;;;;;13.04;67.39;101764.00;4942745;28;20039;-78
2022/04/19 08:01:57;;;;;;;3.80;2.80;;;;;;;13.08;68.53;101759.63;4942354;29;20051;-79
2022/04/19 08:04:28;;;;;;;3.90;2.83;;;;;;;13.17;67.36;101748.22;4933967;28;20059;-78
2022/04/19 08:07:02;;;;;;;3.28;2.45;;;;;;;13.22;66.18;101751.78;4950067;28;20270;-78
2022/04/19 08:09:32;;;;;;;4.43;2.55;;;;;;;13.21;65.50;101755.28;4915754;28;20040;-78
2022/04/19 08:12:01;;;;;;;4.55;2.67;;;;;;;13.23;65.39;101753.53;4942593;28;20046;-79
2022/04/19 08:14:31;;;;;;;4.45;2.60;;;;;;;13.27;65.08;101758.88;4949246;28;20043;-78
2022/04/19 08:17:00;;;;;;;4.95;2.28;;;;;;;13.35;64.94;101760.72;4942802;29;20277;-78
2022/04/19 08:19:29;;;;;;;3.92;2.55;;;;;;;13.52;65.82;101759.06;4951215;28;20031;-78
2022/04/19 08:21:57;;;;;;;3.25;2.40;;;;;;;13.64;64.37;101755.59;4937977;28;20056;-78
2022/04/19 08:24:29;;;;;;;5.78;2.05;;;;;;;13.80;62.76;101759.22;4919640;28;20059;-78
2022/04/19 08:26:58;;;;;;;2.35;2.15;;;;;;;13.86;61.89;101759.22;4946595;28;20055;-78
2022/04/19 08:29:27;;;;;;;1.90;1.80;;;;;;;13.89;61.24;101756.56;4976900;28;20040;-78
2022/04/19 08:31:56;;;;;;;4.53;2.00;;;;;;;13.90;60.05;101750.41;4964012;28;20048;-78
2022/04/19 08:34:25;;;;;;;1.83;1.73;;;;;;;13.92;59.40;101761.91;4940377;28;20035;-79
2022/04/19 08:36:54;;;;;;;5.35;2.17;;;;;;;13.91;60.82;101769.84;4926180;29;20144;-79
2022/04/19 08:39:26;;;;;;;2.80;1.88;;;;;;;13.88;59.17;101756.59;4918250;28;20051;-79
2022/04/19 08:41:55;;;;;;;1.80;1.70;;;;;;;13.90;59.20;101753.06;4950893;28;20062;-79
2022/04/19 08:44:24;;;;;;;3.55;1.92;;;;;;;14.02;59.56;101768.09;4962303;28;20047;-78
2022/04/19 08:46:55;;;;;;;3.85;2.03;;;;;;;14.21;59.62;101751.41;4952803;28;20052;-78
2022/04/19 08:49:24;;;;;;;3.40;2.20;;;;;;;14.36;58.94;101757.59;4935522;29;20039;-79
2022/04/19 08:51:58;;;;;;;2.47;1.73;;;;;;;14.35;57.78;101769.97;4940040;28;20252;-78
2022/04/19 08:57:29;;;;;;;4.35;2.42;;;;;;;14.61;57.84;101753.25;4936497;28;20055;-79
2022/04/19 09:00:00;;;;;;;3.20;2.20;;;;;;;14.64;57.06;101755.91;4946807;28;20261;-78
2022/04/19 09:02:30;;;;;;;;;;;;;;;14.70;54.19;101763.88;4920670;29;20400;-79
2022/04/19 09:05:19;;;;;;;2.38;2.17;;;;;;;14.60;54.40;101762.09;4939974;28;19930;-78
2022/04/19 09:07:50;;;;;;;5.25;2.33;;;;;;;14.66;56.40;101762.09;4956512;28;20169;-79
2022/04/19 09:10:30;;;;;;;2.60;2.00;;;;;;;14.49;55.65;101763.81;4935979;29;20413;-79
2022/04/19 09:13:01;;;;;;;2.35;2.15;;;;;;;14.42;56.82;101760.25;4952427;28;20620;-79
2022/04/19 09:15:45;;;;;;;3.40;2.70;;;;;;;14.52;56.90;101771.78;4972879;28;20044;-79
2022/04/19 09:18:29;;;;;;;3.33;2.58;;;;;;;14.41;56.89;101761.16;4920372;28;20036;-78
2022/04/19 09:20:59;;;;;;;3.88;2.20;;;;;;;14.55;58.31;101779.72;4934477;28;20329;-79
2022/04/19 09:23:29;;;;;;;3.53;2.50;;;;;;;14.59;57.40;101760.31;4932615;29;20056;-79
2022/04/19 09:26:00;;;;;;;4.10;2.50;;;;;;;14.69;57.38;101759.47;4916995;28;20394;-79
2022/04/19 09:28:29;;;;;;;9.50;2.95;;;;;;;14.76;57.01;101757.69;4952142;28;20393;-79
2022/04/19 09:30:59;;;;;;;2.28;2.05;;;;;;;14.90;56.71;101760.34;4962231;28;20178;-78
2022/04/19 09:33:29;;;;;;;4.22;2.50;;;;;;;14.84;55.83;101776.25;4935217;29;20401;-79
2022/04/19 09:36:02;;;;;;;3.83;2.38;;;;;;;14.78;56.63;101758.56;4945557;28;20813;-78
2022/04/19 09:38:41;;;;;;;3.05;2.72;;;;;;;14.76;56.24;101757.69;4948649;28;20047;-79
2022/04/19 09:41:17;;;;;;;3.75;2.60;;;;;;;14.76;57.01;101758.59;4945969;28;20038;-78
2022/04/19 09:44:04;;;;;;;5.45;2.97;;;;;;;14.85;57.09;101756.81;4936722;28;20150;-78
2022/04/19 09:46:33;;;;;;;5.47;2.63;;;;;;;15.00;56.99;101752.38;4963671;28;20270;-79
2022/04/19 09:49:02;;;;;;;4.35;2.80;;;;;;;15.12;56.34;101755.91;4946671;28;20130;-78
2022/04/19 09:51:32;;;;;;;4.07;2.47;;;;;;;15.10;56.13;101744.41;4929060;29;20473;-79
2022/04/19 09:54:01;;;;;;;3.65;2.75;;;;;;;15.15;56.14;101746.16;4929326;28;20044;-79
2022/04/19 09:56:34;;;;;;;3.20;3.00;;;;;;;15.14;55.41;101749.72;4950913;28;20369;-79
2022/04/19 09:59:24;;;;;;;5.05;2.97;;;;;;;15.24;55.61;101747.06;4952841;28;20048;-79
2022/04/19 10:10:16;;;;;;;4.63;2.97;;;;;;;14.98;55.44;101751.50;4956928;28;20044;-79
2022/04/19 10:12:45;;;;;;;2.78;2.50;;;;;;;15.11;55.27;101754.16;4945389;28;20688;-79
2022/04/19 10:15:13;;;;;;;4.65;2.70;;;;;;;15.08;54.95;101739.09;4939809;28;20062;-78
2022/04/19 10:17:42;;;;;;;3.50;2.95;;;;;;;15.14;55.46;101756.78;4944263;28;20055;-78
2022/04/19 10:20:12;;;;;;;3.28;2.80;;;;;;;15.19;54.84;101758.53;4947501;28;20055;-78
2022/04/19 10:22:48;;;;;;;3.78;3.47;;;;;;;15.09;53.85;101754.13;4965183;28;20404;-78
2022/04/19 10:25:17;;;;;;;5.57;2.90;;;;;;;15.18;55.55;101746.16;4932210;29;20040;-78
2022/04/19 10:27:49;;;;;;;6.95;2.47;;;;;;;15.32;55.52;101762.06;4892978;28;20060;-78
2022/04/19 10:30:19;;;;;;;3.67;2.63;;;;;;;15.37;54.82;101752.31;4952986;28;20044;-78
2022/04/19 10:32:47;;;;;;;4.57;2.53;;;;;;;15.49;55.42;101748.75;4966985;28;20031;-78
2022/04/19 10:35:16;;;;;;;4.63;2.58;;;;;;;15.64;55.17;101754.91;4938862;29;20059;-78
2022/04/19 10:37:46;;;;;;;3.92;2.72;;;;;;;15.71;55.13;101743.38;4913161;28;20071;-78
2022/04/19 10:40:15;;;;;;;3.08;2.33;;;;;;;15.87;55.26;101752.19;4960633;28;20504;-78
2022/04/19 10:42:44;;;;;;;3.55;3.20;;;;;;;15.93;54.78;101736.22;4959596;28;20042;-78
2022/04/19 10:45:12;;;;;;;3.20;2.80;;;;;;;16.06;53.85;101734.38;4965084;28;20055;-78
2022/04/19 10:47:53;;;;;;;3.08;2.78;;;;;;;16.07;52.46;101723.75;4946894;28;20056;-78
2022/04/19 10:50:34;;;;;;;;;;;;;;;16.01;51.90;101730.84;4965767;28;20048;-78
2022/04/19 10:53:08;;;;;;;3.20;2.80;;;;;;;15.94;53.13;101733.56;4942657;28;21993;-78
2022/04/19 10:55:38;;;;;;;5.22;2.53;;;;;;;15.86;52.75;101724.75;4954540;28;20044;-78
2022/04/19 10:58:21;;;;;;;3.65;3.30;;;;;;;15.89;52.82;101723.84;4945749;28;20379;-77
2022/04/19 11:00:58;;;;;;;5.90;2.88;;;;;;;16.02;53.72;101732.63;4910155;29;20070;-77
2022/04/19 11:03:35;;;;;;;6.93;2.58;;;;;;;16.05;52.89;101719.31;4940286;29;20051;-77
2022/04/19 11:06:09;;;;;;;3.05;2.75;;;;;;;16.15;53.11;101724.56;4961073;28;20232;-78
2022/04/19 11:08:38;;;;;;;2.85;2.50;;;;;;;16.28;53.12;101722.72;4937139;28;20040;-78
2022/04/19 11:11:22;;;;;;;2.58;2.35;;;;;;;16.32;50.42;101713.81;4943406;28;20055;-78
2022/04/19 11:14:29;;;;;;;2.63;2.42;;;;;;;16.20;49.61;101716.59;4943665;29;20059;-79
2022/04/19 11:17:20;;;;;;;2.55;2.10;;;;;;;16.23;51.38;101718.34;4949004;28;20054;-78
2022/04/19 11:19:53;;;;;;;6.13;3.90;;;;;;;16.20;51.20;101721.91;4956212;28;20036;-79
2022/04/19 11:22:43;;;;;;;3.38;2.55;;;;;;;16.33;49.06;101720.94;4930409;28;20028;-78
2022/04/19 11:25:12;;;;;;;4.38;2.70;;;;;;;16.31;50.90;101716.50;4952192;28;20067;-79
2022/04/19 11:27:53;;;;;;;3.05;2.60;;;;;;;16.29;49.83;101716.50;4913498;29;20040;-79
2022/04/19 11:30:24;;;;;;;5.63;2.20;;;;;;;16.35;51.24;101716.47;4956327;28;20040;-76
2022/04/19 11:32:55;;;;;;;2.58;2.30;;;;;;;16.53;50.85;101719.91;4946474;28;20428;-75
2022/04/19 11:35:24;;;;;;;2.75;2.20;;;;;;;16.51;50.67;101713.69;4954381;28;20048;-74
2022/04/19 11:37:52;;;;;;;2.58;2.47;;;;;;;16.44;50.25;101726.16;4932777;28;20043;-74
2022/04/19 11:48:52;;;;;;;3.97;2.63;;;;;;;16.50;49.71;101717.25;4924852;29;20504;-75
2022/04/19 11:51:21;;;;;;;3.42;2.20;;;;;;;16.54;50.12;101703.94;4934605;28;20055;-75
2022/04/19 11:53:50;;;;;;;4.80;2.42;;;;;;;16.65;50.11;101711.78;4956344;28;20497;-74
2022/04/19 11:56:19;;;;;;;7.60;3.00;;;;;;;16.74;49.57;101716.16;4902432;28;20052;-75
2022/04/19 11:58:51;;;;;;;2.85;2.00;;;;;;;16.77;48.99;101701.06;4924462;29;20150;-75
2022/04/19 12:01:20;;;;;;;1.98;1.88;;;;;;;16.74;48.89;101710.84;4937151;29;20044;-74
2022/04/19 12:03:49;;;;;;;2.50;1.95;;;;;;;16.82;49.05;101709.03;4955956;28;20253;-75
2022/04/19 12:06:19;;;;;;;3.47;2.40;;;;;;;16.90;49.59;101706.28;4943462;29;20520;-75
2022/04/19 12:08:52;;;;;;;;;;;;;;;17.04;48.23;101704.38;4946977;28;20336;-75
2022/04/19 12:11:25;;;;;;;3.70;2.47;;;;;;;17.14;48.09;101700.75;4916834;28;19930;-75
2022/04/19 12:13:56;;;;;;;3.13;2.83;;;;;;;17.11;49.29;101714.09;4917217;29;20344;-75
2022/04/19 12:16:29;;;;;;;3.10;2.80;;;;;;;17.17;49.36;101709.59;4956352;28;20048;-75
2022/04/19 12:19:00;;;;;;;7.53;2.70;;;;;;;17.17;48.13;101714.94;4957060;28;20047;-75
2022/04/19 12:21:43;;;;;;;3.53;2.50;;;;;;;17.11;49.16;101700.78;4935154;29;20047;-76
2022/04/19 12:24:22;;;;;;;4.60;3.03;;;;;;;17.15;48.08;101707.81;4921157;29;20043;-75